Time;durP1;ratioP1;P1;durP2;ratioP2;P2;SDS_P1;SDS_P2;PMS_P1;PMS_P2;Temp;Humidity;BMP_temperature;BMP_pressure;BME280_temperature;BME280_humidity;BME280_pressure;Samples;Min_cycle;Max_cycle;Signal;HPM_P1;HPM_P2
2022/10/02 00:01:06;;;;;;;1.30;1.20;;;;;;;11.78;100.00;96780.16;5060517;28;20202;-76
2022/10/02 00:03:38;;;;;;;1.90;1.00;;;;;;;11.79;100.00;96790.75;5073763;28;20288;-76
2022/10/02 00:06:12;;;;;;;1.13;1.07;;;;;;;11.88;100.00;96781.28;5058521;28;20521;-76
2022/10/02 00:08:41;;;;;;;1.27;1.17;;;;;;;11.86;100.00;96775.25;5063703;28;20214;-76
2022/10/02 00:11:13;;;;;;;1.20;1.10;;;;;;;11.84;100.00;96790.88;5065498;28;20193;-76
2022/10/02 00:13:45;;;;;;;1.50;1.03;;;;;;;11.86;100.00;96796.91;5064232;28;20233;-76
2022/10/02 00:16:21;;;;;;;1.20;1.10;;;;;;;11.98;100.00;96786.16;5060142;28;20261;-76
2022/10/02 00:18:50;;;;;;;1.27;1.03;;;;;;;11.93;100.00;96807.63;5063307;28;20221;-76
2022/10/02 00:21:32;;;;;;;1.50;1.20;;;;;;;11.96;100.00;96807.19;5062334;28;20209;-76
2022/10/02 00:24:01;;;;;;;1.40;1.00;;;;;;;11.95;100.00;96795.53;5062582;28;20207;-76
2022/10/02 00:26:34;;;;;;;1.37;1.20;;;;;;;11.97;100.00;96806.97;5064877;28;20190;-76
2022/10/02 00:29:16;;;;;;;0.93;0.80;;;;;;;11.93;100.00;96813.88;5059637;28;20197;-76
2022/10/02 00:31:56;;;;;;;1.13;1.03;;;;;;;12.04;100.00;96840.19;5058809;28;20244;-76
2022/10/02 00:34:33;;;;;;;1.30;1.00;;;;;;;12.05;100.00;96831.03;5062302;28;20223;-76
2022/10/02 00:37:11;;;;;;;1.90;1.10;;;;;;;12.04;100.00;96818.53;5065593;28;20217;-76
2022/10/02 00:39:50;;;;;;;1.03;0.93;;;;;;;12.02;100.00;96836.88;5065680;28;20345;-76
2022/10/02 00:42:47;;;;;;;1.30;1.20;;;;;;;12.05;100.00;96831.03;5061997;28;20273;-76
2022/10/02 00:45:40;;;;;;;1.20;1.10;;;;;;;12.04;100.00;96832.06;5061538;28;20271;-76
2022/10/02 00:48:20;;;;;;;1.00;1.00;;;;;;;12.05;100.00;96832.91;5067110;28;20292;-76
2022/10/02 00:50:57;;;;;;;1.80;1.30;;;;;;;12.00;100.00;96849.81;5064108;28;20275;-76
2022/10/02 00:53:36;;;;;;;1.20;1.10;;;;;;;12.01;100.00;96862.28;5071460;28;20186;-76
2022/10/02 00:56:18;;;;;;;2.37;1.10;;;;;;;12.07;100.00;96857.88;5068093;28;20228;-76
2022/10/02 00:59:11;;;;;;;1.43;1.20;;;;;;;12.06;100.00;96843.50;5067567;28;20310;-76
2022/10/02 01:01:42;;;;;;;1.20;1.10;;;;;;;12.12;100.00;96852.59;5062090;28;20202;-76
2022/10/02 01:04:13;;;;;;;1.43;1.13;;;;;;;12.08;100.00;96856.78;5065922;28;20211;-76
2022/10/02 01:06:42;;;;;;;1.23;1.13;;;;;;;12.05;100.00;96874.31;5067285;28;20572;-76
2022/10/02 01:09:09;;;;;;;1.40;1.00;;;;;;;12.08;100.00;96890.09;5063673;28;20209;-76
2022/10/02 01:11:38;;;;;;;1.03;0.97;;;;;;;12.19;100.00;96879.56;5080461;28;20224;-75
2022/10/02 01:14:05;;;;;;;1.87;1.00;;;;;;;12.17;100.00;96860.00;5090678;28;20232;-77
2022/10/02 01:16:32;;;;;;;1.43;1.10;;;;;;;12.11;100.00;96861.75;5090250;28;20241;-76
2022/10/02 01:18:59;;;;;;;1.27;1.13;;;;;;;12.12;100.00;96864.25;5086565;28;20236;-75
2022/10/02 01:21:36;;;;;;;0.90;0.90;;;;;;;12.12;100.00;96864.25;5091175;28;20192;-75
2022/10/02 01:24:16;;;;;;;1.07;1.00;;;;;;;12.13;100.00;96865.91;5101896;28;20219;-75
2022/10/02 01:26:44;;;;;;;0.97;0.90;;;;;;;12.20;100.00;96864.97;5092841;28;20256;-76
2022/10/02 01:29:11;;;;;;;1.20;1.00;;;;;;;12.21;100.00;96859.34;5095212;28;20201;-75
2022/10/02 01:31:41;;;;;;;0.90;0.90;;;;;;;12.25;100.00;96884.09;5092145;28;20200;-75
2022/10/02 01:34:09;;;;;;;0.90;0.90;;;;;;;12.25;100.00;96901.13;5089764;28;20192;-75
2022/10/02 01:36:37;;;;;;;1.93;1.00;;;;;;;12.19;100.00;96885.81;5090129;28;20247;-75
2022/10/02 01:39:04;;;;;;;1.53;1.00;;;;;;;12.16;100.00;96880.03;5098503;28;20239;-75
2022/10/02 01:41:44;;;;;;;1.37;1.27;;;;;;;12.13;100.00;96882.13;5095281;28;20208;-75
2022/10/02 01:44:13;;;;;;;1.53;1.13;;;;;;;12.14;100.00;96893.78;5090956;28;20237;-76
2022/10/02 01:46:49;;;;;;;2.20;1.30;;;;;;;12.18;100.00;96888.72;5096401;28;20191;-75
2022/10/02 01:49:38;;;;;;;1.37;1.20;;;;;;;12.20;100.00;96886.63;5092807;28;20219;-75
2022/10/02 01:52:19;;;;;;;2.33;1.10;;;;;;;12.19;100.00;96885.81;5080323;28;20217;-75
2022/10/02 01:55:00;;;;;;;1.17;1.07;;;;;;;12.20;100.00;96892.06;5082419;28;20193;-75
2022/10/02 01:57:49;;;;;;;3.47;1.00;;;;;;;12.23;100.00;96894.31;5078929;28;20186;-77
2022/10/02 02:00:19;;;;;;;3.07;1.10;;;;;;;12.25;100.00;96884.09;5091253;28;20230;-75
2022/10/02 02:02:56;;;;;;;1.07;1.00;;;;;;;12.17;100.00;96878.97;5092792;28;20182;-75
2022/10/02 02:05:34;;;;;;;1.37;1.20;;;;;;;12.30;100.00;96892.34;5093220;28;20185;-75
2022/10/02 02:08:09;;;;;;;0.97;0.97;;;;;;;12.36;100.00;96878.72;5081578;28;20208;-77
2022/10/02 02:10:46;;;;;;;0.97;0.97;;;;;;;12.48;100.00;96885.03;5085558;28;20243;-75
2022/10/02 02:13:20;;;;;;;2.00;1.90;;;;;;;12.49;100.00;96915.66;5082363;28;20236;-75
2022/10/02 02:15:56;;;;;;;2.37;1.30;;;;;;;12.47;100.00;96898.78;5108689;28;20273;-75
2022/10/02 02:18:31;;;;;;;1.20;1.10;;;;;;;12.51;100.00;96889.13;5090718;28;20261;-75
2022/10/02 02:21:03;;;;;;;1.30;1.20;;;;;;;12.54;100.00;96887.84;5094974;28;20183;-77
2022/10/02 02:23:33;;;;;;;3.13;1.10;;;;;;;12.50;100.00;96893.72;5093503;28;20212;-75
2022/10/02 02:26:05;;;;;;;1.10;1.00;;;;;;;12.54;100.00;96883.28;5090302;28;20257;-77
2022/10/02 02:28:35;;;;;;;1.50;1.20;;;;;;;12.49;100.00;96899.41;5084894;28;20182;-76
2022/10/02 02:31:06;;;;;;;3.03;1.23;;;;;;;12.46;100.00;96921.50;5091368;28;20308;-78
2022/10/02 02:33:38;;;;;;;3.77;1.30;;;;;;;12.43;100.00;96908.41;5088519;28;20193;-75
2022/10/02 02:36:11;;;;;;;2.90;1.20;;;;;;;12.40;100.00;96917.84;5090480;28;20283;-76
2022/10/02 02:38:44;;;;;;;1.20;1.00;;;;;;;12.40;100.00;96925.97;5089147;28;20249;-76
2022/10/02 02:41:15;;;;;;;1.73;1.10;;;;;;;12.40;100.00;96925.13;5091764;28;20205;-77
2022/10/02 02:43:47;;;;;;;1.63;1.13;;;;;;;12.46;100.00;96929.63;5093932;28;21019;-75
2022/10/02 02:46:23;;;;;;;3.17;1.30;;;;;;;12.50;100.00;96915.41;5089853;28;20205;-75
2022/10/02 02:48:55;;;;;;;2.30;1.23;;;;;;;12.55;100.00;96890.34;5091924;28;20197;-75
2022/10/02 02:51:27;;;;;;;1.07;0.97;;;;;;;12.58;100.00;96895.31;5086928;28;20201;-75
2022/10/02 02:54:01;;;;;;;1.50;1.00;;;;;;;12.59;100.00;96902.34;5088531;28;20190;-75
2022/10/02 02:56:31;;;;;;;1.17;1.00;;;;;;;12.63;100.00;96910.88;5092616;28;20259;-75
2022/10/02 02:59:04;;;;;;;1.10;1.00;;;;;;;12.62;100.00;96896.50;5085159;28;20228;-76
2022/10/02 03:01:33;;;;;;;1.50;1.30;;;;;;;12.59;100.00;96898.84;5081754;28;20217;-76
2022/10/02 03:04:00;;;;;;;4.37;1.03;;;;;;;12.57;100.00;96882.81;5090746;28;20253;-75
2022/10/02 03:06:36;;;;;;;2.60;0.87;;;;;;;12.51;100.00;96864.75;5091616;28;20265;-76
2022/10/02 03:09:06;;;;;;;0.97;0.97;;;;;;;12.58;100.00;96895.31;5084372;28;20203;-75
2022/10/02 03:11:45;;;;;;;2.90;1.13;;;;;;;12.51;100.00;96898.09;5087881;28;20189;-75
2022/10/02 03:14:35;;;;;;;1.47;0.97;;;;;;;12.44;100.00;96891.09;5089363;28;20225;-76
2022/10/02 03:17:13;;;;;;;2.13;1.33;;;;;;;12.37;100.00;96872.25;5090507;28;20202;-75
2022/10/02 03:19:46;;;;;;;1.07;1.00;;;;;;;12.50;100.00;96890.22;5089545;28;20236;-75
2022/10/02 03:22:19;;;;;;;1.60;1.13;;;;;;;12.51;100.00;96878.28;5092165;28;20198;-77
2022/10/02 03:24:53;;;;;;;1.17;1.03;;;;;;;12.50;100.00;96855.81;5087215;28;20221;-75
2022/10/02 03:27:27;;;;;;;1.67;1.10;;;;;;;12.50;100.00;96844.16;5086895;28;20204;-75
2022/10/02 03:30:00;;;;;;;2.13;1.17;;;;;;;12.44;100.00;96839.66;5077752;28;20185;-77
2022/10/02 03:32:32;;;;;;;1.33;1.10;;;;;;;12.50;100.00;96838.75;5090072;28;20183;-75
2022/10/02 03:35:00;;;;;;;1.30;1.20;;;;;;;12.48;100.00;96832.72;5087111;28;20200;-75
2022/10/02 03:37:28;;;;;;;1.00;0.90;;;;;;;12.51;100.00;96838.50;5089027;28;20263;-76
2022/10/02 03:39:58;;;;;;;1.67;1.10;;;;;;;12.56;100.00;96834.28;5085883;28;20278;-76
2022/10/02 03:42:30;;;;;;;1.67;0.90;;;;;;;12.58;100.00;96841.13;5092854;28;20193;-79
2022/10/02 03:44:57;;;;;;;2.40;1.20;;;;;;;12.53;100.00;96835.56;5089831;28;20193;-75
2022/10/02 03:47:24;;;;;;;2.50;1.30;;;;;;;12.40;100.00;96816.81;5091377;28;20181;-75
2022/10/02 03:49:53;;;;;;;1.53;0.97;;;;;;;12.43;100.00;96835.28;5089671;28;20190;-75
2022/10/02 03:52:23;;;;;;;1.00;1.00;;;;;;;12.42;100.00;96829.03;5092786;28;20193;-77
2022/10/02 03:54:55;;;;;;;1.60;0.90;;;;;;;12.39;100.00;96837.66;5081720;28;20186;-75
2022/10/02 03:57:25;;;;;;;1.60;1.10;;;;;;;12.38;100.00;96846.81;5087435;28;20205;-75
2022/10/02 04:00:02;;;;;;;3.30;1.00;;;;;;;12.46;100.00;96880.88;5091814;28;20219;-79
2022/10/02 04:02:37;;;;;;;1.10;1.00;;;;;;;12.48;100.00;96886.91;5091461;28;20199;-75
2022/10/02 04:05:19;;;;;;;1.60;1.10;;;;;;;12.52;100.00;96858.28;5092201;28;20198;-76
2022/10/02 04:07:49;;;;;;;1.50;1.13;;;;;;;12.51;100.00;96873.72;5085832;28;20193;-76
2022/10/02 04:10:36;;;;;;;0.90;0.90;;;;;;;12.48;100.00;96878.78;5093400;28;20346;-76
2022/10/02 04:13:11;;;;;;;1.30;1.00;;;;;;;12.40;100.00;96879.09;5090943;28;20196;-75
2022/10/02 04:15:53;;;;;;;1.20;1.00;;;;;;;12.44;100.00;96875.69;5091348;28;20205;-78
2022/10/02 04:18:25;;;;;;;0.70;0.70;;;;;;;12.47;100.00;96879.84;5080997;28;20185;-75
2022/10/02 04:20:58;;;;;;;1.20;1.10;;;;;;;12.45;100.00;96874.63;5097071;28;20235;-75
2022/10/02 04:23:32;;;;;;;2.00;1.80;;;;;;;12.42;100.00;96885.09;5094956;28;20185;-75
2022/10/02 04:26:05;;;;;;;2.57;1.47;;;;;;;12.43;100.00;96897.56;5090643;28;20318;-77
2022/10/02 04:28:38;;;;;;;4.20;2.30;;;;;;;12.41;100.00;96878.88;5092984;28;20213;-76
2022/10/02 04:31:11;;;;;;;1.40;1.30;;;;;;;12.34;100.00;96877.28;5101049;28;20453;-77
2022/10/02 04:33:39;;;;;;;1.57;1.47;;;;;;;12.45;100.00;96890.06;5087413;28;20215;-77
2022/10/02 04:36:17;;;;;;;5.33;1.50;;;;;;;12.37;100.00;96882.25;5096564;28;20184;-75
2022/10/02 04:38:59;;;;;;;2.07;1.27;;;;;;;12.43;100.00;96884.03;5095043;28;20179;-76
2022/10/02 04:41:39;;;;;;;2.47;1.60;;;;;;;12.41;100.00;96887.00;5091201;28;20253;-76
2022/10/02 04:44:20;;;;;;;2.10;1.30;;;;;;;12.27;100.00;96858.41;5104870;28;20200;-76
2022/10/02 04:47:02;;;;;;;1.83;1.50;;;;;;;12.43;100.00;96865.06;5088981;28;20193;-77
2022/10/02 04:49:50;;;;;;;1.70;1.60;;;;;;;12.36;100.00;96853.50;5090518;28;20252;-75
2022/10/02 04:52:35;;;;;;;1.53;1.40;;;;;;;12.30;100.00;96855.25;5095276;28;20216;-75
2022/10/02 04:55:24;;;;;;;1.83;1.73;;;;;;;12.22;100.00;96843.94;5090131;28;20265;-77
2022/10/02 04:58:20;;;;;;;2.03;1.60;;;;;;;12.27;100.00;96834.06;5076995;28;20190;-75
2022/10/02 05:00:53;;;;;;;2.00;1.57;;;;;;;12.33;100.00;96837.75;5093360;28;20221;-75
2022/10/02 05:03:38;;;;;;;3.60;1.60;;;;;;;12.33;100.00;96848.56;5091420;28;20219;-75
2022/10/02 05:06:20;;;;;;;1.87;1.40;;;;;;;12.23;100.00;96826.63;5092688;28;20212;-76
2022/10/02 05:09:09;;;;;;;3.33;1.87;;;;;;;12.29;100.00;96834.66;5092178;28;20201;-75
2022/10/02 05:12:03;;;;;;;4.97;1.90;;;;;;;12.19;100.00;96836.25;5092170;28;20228;-75
2022/10/02 05:15:02;;;;;;;2.43;2.10;;;;;;;12.20;100.00;96824.38;5092550;28;20228;-76
2022/10/02 05:17:52;;;;;;;2.53;2.20;;;;;;;12.22;100.00;96809.56;5059537;28;20193;-78
2022/10/02 05:20:45;;;;;;;3.00;2.20;;;;;;;12.27;100.00;96827.81;5090138;28;20217;-75
2022/10/02 05:23:25;;;;;;;2.57;2.30;;;;;;;12.13;100.00;96816.34;5097635;28;20195;-75
2022/10/02 05:26:24;;;;;;;3.10;2.10;;;;;;;12.16;100.00;96826.72;5088508;28;20212;-75
2022/10/02 05:29:12;;;;;;;2.10;1.90;;;;;;;12.21;100.00;96834.97;5057622;28;20191;-75
2022/10/02 05:31:52;;;;;;;3.00;2.20;;;;;;;12.24;100.00;96820.16;5084585;28;20181;-78
2022/10/02 05:34:39;;;;;;;3.20;2.20;;;;;;;12.17;100.00;96812.09;5089767;28;20185;-75
2022/10/02 05:37:19;;;;;;;2.53;1.90;;;;;;;12.16;100.00;96824.00;5101271;28;20198;-78
2022/10/02 05:39:52;;;;;;;4.87;3.07;;;;;;;12.16;100.00;96812.34;5092786;28;20214;-75
2022/10/02 05:42:29;;;;;;;2.03;1.90;;;;;;;12.23;100.00;96816.63;5095765;28;20186;-76
2022/10/02 05:45:01;;;;;;;3.77;1.50;;;;;;;12.16;100.00;96815.91;5112482;28;20220;-76
2022/10/02 05:47:31;;;;;;;3.47;1.67;;;;;;;12.21;100.00;96815.19;5090823;28;20204;-75
2022/10/02 05:50:01;;;;;;;2.43;1.27;;;;;;;12.22;100.00;96814.97;5087899;28;20212;-75
2022/10/02 05:52:36;;;;;;;1.50;1.30;;;;;;;12.18;100.00;96812.94;5090656;28;20208;-75
2022/10/02 05:55:13;;;;;;;3.63;1.80;;;;;;;12.15;100.00;96819.66;5090288;28;20197;-75
2022/10/02 05:57:46;;;;;;;1.50;1.40;;;;;;;12.21;100.00;96828.72;5089502;28;20220;-75
2022/10/02 06:00:24;;;;;;;1.40;1.30;;;;;;;12.25;100.00;96819.91;5080710;28;20235;-75
2022/10/02 06:03:00;;;;;;;2.07;1.70;;;;;;;12.30;100.00;96828.19;5090913;28;20200;-77
2022/10/02 06:05:38;;;;;;;6.87;2.87;;;;;;;12.28;100.00;96835.69;5089241;28;20288;-75
2022/10/02 06:08:08;;;;;;;2.40;2.20;;;;;;;12.34;100.00;96834.78;5085270;28;20230;-76
2022/10/02 06:10:41;;;;;;;2.33;1.63;;;;;;;12.36;100.00;96839.97;5092097;28;20196;-76
2022/10/02 06:13:15;;;;;;;1.60;1.50;;;;;;;12.43;100.00;96827.16;5089960;28;20190;-76
2022/10/02 06:15:49;;;;;;;1.60;1.30;;;;;;;12.43;100.00;96838.00;5091481;28;20217;-75
2022/10/02 06:18:20;;;;;;;4.60;1.20;;;;;;;12.39;100.00;96820.56;5086313;28;20189;-75
2022/10/02 06:20:52;;;;;;;2.83;1.50;;;;;;;12.39;100.00;96825.97;5097673;28;20204;-75
2022/10/02 06:23:24;;;;;;;1.40;1.30;;;;;;;12.47;100.00;96836.50;5091804;28;20202;-76
2022/10/02 06:25:55;;;;;;;1.50;1.40;;;;;;;12.49;100.00;96837.09;5086228;28;20209;-75
2022/10/02 06:28:30;;;;;;;2.50;1.40;;;;;;;12.49;100.00;96831.69;5089777;28;20261;-76
2022/10/02 06:31:05;;;;;;;7.00;1.30;;;;;;;12.59;100.00;96831.13;5090056;28;20181;-75
2022/10/02 06:33:33;;;;;;;3.17;1.07;;;;;;;12.56;100.00;96832.41;5092923;28;20193;-76
2022/10/02 06:36:30;;;;;;;1.70;1.27;;;;;;;12.61;100.00;96829.81;5088012;28;20185;-75
2022/10/02 06:39:14;;;;;;;3.60;1.50;;;;;;;12.65;100.00;96824.78;5089253;28;20193;-76
2022/10/02 06:41:49;;;;;;;1.70;1.47;;;;;;;12.73;100.00;96822.56;5088325;28;20217;-75
2022/10/02 06:44:26;;;;;;;1.50;1.27;;;;;;;12.67;100.00;96796.41;5090563;28;20201;-75
2022/10/02 06:47:15;;;;;;;4.60;2.00;;;;;;;12.68;100.00;96810.75;5088530;28;20307;-76
2022/10/02 06:50:00;;;;;;;3.67;1.80;;;;;;;12.82;100.00;96844.72;5090344;28;20276;-76
2022/10/02 06:52:38;;;;;;;3.03;1.60;;;;;;;12.92;100.00;96836.84;5091243;28;20192;-76
2022/10/02 06:55:26;;;;;;;2.13;1.57;;;;;;;12.91;100.00;96818.94;5090858;28;20185;-75
2022/10/02 06:58:08;;;;;;;2.33;1.60;;;;;;;12.94;100.00;96809.50;5084901;28;20201;-76
2022/10/02 07:00:47;;;;;;;1.60;1.50;;;;;;;13.02;100.00;96825.41;5091983;28;20244;-76
2022/10/02 07:03:41;;;;;;;2.07;1.87;;;;;;;13.07;100.00;96829.09;5089944;28;20201;-75
2022/10/02 07:06:28;;;;;;;2.77;2.30;;;;;;;12.99;100.00;96820.47;5089146;28;20238;-75
2022/10/02 07:09:42;;;;;;;2.33;1.53;;;;;;;13.13;100.00;96835.44;5086797;28;20192;-76
2022/10/02 07:12:33;;;;;;;2.10;1.50;;;;;;;13.23;100.00;96838.44;5079090;28;20216;-75
2022/10/02 07:15:18;;;;;;;1.60;1.30;;;;;;;13.32;100.00;96839.75;5088144;28;20237;-76
2022/10/02 07:18:01;;;;;;;1.50;1.27;;;;;;;13.37;100.00;96826.28;5087055;28;20231;-76
2022/10/02 07:20:36;;;;;;;1.50;1.40;;;;;;;13.41;100.00;96830.19;5090346;28;20217;-77
2022/10/02 07:23:18;;;;;;;3.47;2.20;;;;;;;13.43;100.00;96830.78;5077933;28;20197;-75
2022/10/02 07:26:02;;;;;;;6.57;4.80;;;;;;;13.46;100.00;96834.91;5085029;28;20198;-76
2022/10/02 07:28:41;;;;;;;4.17;2.80;;;;;;;13.47;100.00;96842.81;5085237;28;20205;-77
2022/10/02 07:31:17;;;;;;;2.13;1.80;;;;;;;13.51;100.00;96841.28;5089479;28;20189;-76
2022/10/02 07:34:05;;;;;;;3.57;2.70;;;;;;;13.53;100.00;96839.16;5087455;28;20423;-75
2022/10/02 07:36:46;;;;;;;3.10;2.30;;;;;;;13.53;100.00;96833.72;5090671;28;20223;-77
2022/10/02 07:39:27;;;;;;;4.37;2.67;;;;;;;13.54;100.00;96826.41;5079629;28;20189;-76
2022/10/02 07:42:12;;;;;;;5.53;3.17;;;;;;;13.66;100.00;96837.25;5083481;28;20213;-78
2022/10/02 07:44:59;;;;;;;4.47;2.00;;;;;;;13.68;100.00;96832.44;5088288;28;20212;-78
2022/10/02 07:47:44;;;;;;;2.40;1.93;;;;;;;13.69;100.00;96823.22;5087704;28;20185;-79
2022/10/02 07:50:17;;;;;;;4.40;1.60;;;;;;;13.75;100.00;96827.69;5086179;28;20209;-76
2022/10/02 07:52:54;;;;;;;2.07;1.20;;;;;;;13.85;100.00;96836.06;5089423;28;20177;-79
2022/10/02 07:55:23;;;;;;;4.90;1.50;;;;;;;13.76;100.00;96805.75;5092060;28;20262;-81
2022/10/02 07:58:01;;;;;;;1.80;1.30;;;;;;;13.88;100.00;96824.69;5088253;28;20190;-81
2022/10/02 08:00:31;;;;;;;1.97;1.40;;;;;;;13.83;100.00;96830.88;5085384;28;20217;-77
2022/10/02 08:03:01;;;;;;;3.83;1.50;;;;;;;13.86;100.00;96827.69;5095615;28;20228;-77
2022/10/02 08:05:33;;;;;;;2.80;1.60;;;;;;;13.99;100.00;96832.00;5082893;28;20196;-81
2022/10/02 08:08:04;;;;;;;2.43;1.40;;;;;;;14.03;100.00;96833.19;5079668;28;20416;-77
2022/10/02 08:10:37;;;;;;;2.07;1.13;;;;;;;14.09;100.00;96831.41;5089990;28;20212;-77
2022/10/02 08:13:14;;;;;;;1.50;1.40;;;;;;;14.16;100.00;96832.91;5079926;28;20230;-76
2022/10/02 08:15:44;;;;;;;2.67;1.70;;;;;;;14.27;100.00;96826.63;5088249;28;20244;-79
2022/10/02 08:18:17;;;;;;;1.40;1.30;;;;;;;14.35;100.00;96828.94;5087327;28;20199;-78
2022/10/02 08:20:47;;;;;;;2.93;2.50;;;;;;;14.36;100.00;96813.47;5085619;28;20214;-75
2022/10/02 08:23:22;;;;;;;3.70;2.90;;;;;;;14.45;100.00;96812.03;5081679;28;20201;-76
2022/10/02 08:25:58;;;;;;;1.10;1.07;;;;;;;14.53;100.00;96805.38;5087454;28;20202;-77
2022/10/02 08:28:30;;;;;;;2.20;1.10;;;;;;;14.55;100.00;96804.06;5089633;28;20228;-76
2022/10/02 08:30:57;;;;;;;3.73;1.40;;;;;;;14.70;100.00;96811.69;5083664;28;20190;-75
2022/10/02 08:33:25;;;;;;;1.40;1.27;;;;;;;14.89;100.00;96793.22;5088556;28;20181;-75
2022/10/02 08:36:12;;;;;;;2.63;2.03;;;;;;;14.96;100.00;96804.78;5090171;28;20190;-75
2022/10/02 08:38:45;;;;;;;2.03;0.90;;;;;;;14.95;100.00;96798.53;5077912;28;20229;-75
2022/10/02 08:42:00;;;;;;;1.00;0.90;;;;;;;14.99;100.00;96786.06;5079312;28;20249;-75
2022/10/02 08:45:10;;;;;;;1.67;0.83;;;;;;;15.11;100.00;96778.66;4957704;28;20551;-76
2022/10/02 08:48:07;;;;;;;1.77;1.10;;;;;;;15.10;100.00;96768.84;5101751;28;20201;-75
2022/10/02 08:51:12;;;;;;;3.10;1.03;;;;;;;15.20;100.00;96773.63;5082500;28;20186;-75
2022/10/02 08:54:14;;;;;;;3.03;1.20;;;;;;;15.30;100.00;96770.22;5099504;28;20191;-75
2022/10/02 08:57:12;;;;;;;1.30;1.20;;;;;;;15.34;100.00;96763.19;5044559;28;20273;-75
2022/10/02 09:00:13;;;;;;;1.40;1.23;;;;;;;15.26;100.00;96750.03;5079038;28;20213;-75
2022/10/02 09:03:26;;;;;;;1.33;1.00;;;;;;;15.39;100.00;96771.47;5085400;28;20187;-75
2022/10/02 09:06:31;;;;;;;2.20;1.00;;;;;;;15.23;100.00;96750.50;5083595;28;20190;-75
2022/10/02 09:09:44;;;;;;;1.37;1.07;;;;;;;15.09;100.00;96734.56;5084964;28;20598;-75
2022/10/02 09:12:41;;;;;;;2.63;0.93;;;;;;;15.01;100.00;96731.44;5086627;28;20208;-75
2022/10/02 09:15:16;;;;;;;2.50;0.80;;;;;;;14.95;100.00;96729.72;5082032;28;20257;-77
2022/10/02 09:17:47;;;;;;;3.43;1.60;;;;;;;14.94;100.00;96739.78;5107633;28;20268;-76
2022/10/02 09:21:05;;;;;;;2.23;0.93;;;;;;;15.12;100.00;96755.81;5082324;28;20197;-75
2022/10/02 09:24:13;;;;;;;1.03;0.90;;;;;;;15.05;100.00;96733.44;5070404;28;20217;-75
2022/10/02 09:27:02;;;;;;;1.97;1.20;;;;;;;15.11;100.00;96728.88;5092224;28;20231;-77
2022/10/02 09:30:02;;;;;;;2.50;1.00;;;;;;;15.37;100.00;96732.78;5092551;28;20213;-77
2022/10/02 09:33:17;;;;;;;5.57;2.10;;;;;;;15.40;100.00;96718.66;5087484;28;20209;-77
2022/10/02 09:36:23;;;;;;;1.10;1.00;;;;;;;15.51;100.00;96724.00;5024003;28;20204;-78
2022/10/02 09:39:31;;;;;;;5.77;3.90;;;;;;;15.71;100.00;96723.47;5086582;28;20280;-79
2022/10/02 09:42:42;;;;;;;4.30;2.20;;;;;;;15.76;100.00;96723.53;5039760;28;20225;-78
2022/10/02 09:45:45;;;;;;;1.30;1.20;;;;;;;15.86;100.00;96720.91;5076129;28;20194;-81
2022/10/02 09:48:48;;;;;;;3.27;1.20;;;;;;;15.86;100.00;96726.38;5076719;28;20285;-79
2022/10/02 09:51:53;;;;;;;2.40;1.90;;;;;;;16.04;100.00;96738.00;5087177;28;20213;-83
2022/10/02 09:54:55;;;;;;;1.90;1.30;;;;;;;16.18;100.00;96737.34;5080246;28;20213;-82
2022/10/02 09:58:09;;;;;;;1.50;1.30;;;;;;;16.26;100.00;96738.78;5076499;28;20202;-79
2022/10/02 10:01:23;;;;;;;1.20;1.10;;;;;;;16.28;100.00;96729.28;5078153;28;20202;-79
2022/10/02 10:04:16;;;;;;;0.90;0.90;;;;;;;16.33;100.00;96717.63;5012517;28;20207;-81
2022/10/02 10:07:13;;;;;;;2.37;1.20;;;;;;;16.47;100.00;96723.47;5082823;28;20209;-81
2022/10/02 10:10:19;;;;;;;2.97;1.20;;;;;;;16.47;100.00;96718.03;5044631;28;20205;-80
2022/10/02 10:13:31;;;;;;;2.40;1.10;;;;;;;16.56;100.00;96733.66;5069986;28;20209;-81
2022/10/02 10:16:46;;;;;;;1.37;1.03;;;;;;;16.62;100.00;96732.63;5083177;28;20289;-85
2022/10/02 10:20:04;;;;;;;2.07;1.10;;;;;;;16.70;100.00;96712.25;5081435;28;20296;-82
2022/10/02 10:23:11;;;;;;;2.10;1.10;;;;;;;16.90;100.00;96714.31;5065917;28;20218;-79
2022/10/02 10:26:27;;;;;;;1.90;1.10;;;;;;;16.87;100.00;96729.31;5069153;28;20210;-80
2022/10/02 10:29:21;;;;;;;2.80;1.03;;;;;;;16.93;100.00;96727.44;5063840;28;20210;-80
2022/10/02 10:32:21;;;;;;;1.20;1.00;;;;;;;16.97;100.00;96734.00;5078077;28;20201;-85
2022/10/02 10:35:29;;;;;;;1.00;0.83;;;;;;;17.13;100.00;96724.03;5079206;28;20213;-84
2022/10/02 10:38:31;;;;;;;1.70;1.00;;;;;;;17.19;100.00;96720.25;5022483;28;20232;-81
2022/10/02 10:41:29;;;;;;;2.30;1.13;;;;;;;17.63;100.00;96731.72;5072896;28;20228;-79
2022/10/02 10:44:28;;;;;;;2.07;1.20;;;;;;;17.65;100.00;96737.75;5078798;28;20269;-82
2022/10/02 10:47:25;;;;;;;1.07;0.97;;;;;;;17.83;100.00;96729.09;5065474;28;20206;-76
2022/10/02 10:50:14;;;;;;;1.93;1.40;;;;;;;17.93;100.00;96720.94;5039882;28;20206;-81
2022/10/02 10:53:03;;;;;;;1.50;1.13;;;;;;;18.22;100.00;96715.00;5097456;28;20223;-82
2022/10/02 10:55:45;;;;;;;1.20;1.10;;;;;;;18.32;100.00;96709.56;5080130;28;20201;-83
2022/10/02 10:58:21;;;;;;;1.30;1.00;;;;;;;18.28;100.00;96724.88;5081132;28;20280;-82
2022/10/02 11:01:08;;;;;;;2.17;1.00;;;;;;;18.46;100.00;96721.59;5082530;28;20304;-83
2022/10/02 11:04:34;;;;;;;2.60;1.00;;;;;;;18.82;100.00;96709.63;5071547;28;20216;-84
2022/10/02 11:07:36;;;;;;;1.23;0.90;;;;;;;19.01;100.00;96703.63;5000128;28;20207;-83
2022/10/02 11:10:17;;;;;;;2.27;1.00;;;;;;;19.27;100.00;96702.50;5076974;28;20201;-84
2022/10/02 11:13:10;;;;;;;1.85;0.90;;;;;;;19.42;100.00;96704.38;5075125;28;20222;-81
2022/10/02 11:15:59;;;;;;;2.30;0.87;;;;;;;18.94;100.00;96692.13;5072201;28;20239;-83
2022/10/02 11:18:49;;;;;;;0.98;0.90;;;;;;;19.09;100.00;96683.91;5074517;28;20281;-83
2022/10/02 11:21:55;;;;;;;1.27;0.90;;;;;;;19.22;100.00;96688.81;5072139;28;20226;-83
2022/10/02 11:24:47;;;;;;;1.55;1.02;;;;;;;19.59;100.00;96682.97;5061558;28;20233;-80
2022/10/02 11:27:50;;;;;;;2.83;0.90;;;;;;;20.06;100.00;96679.78;5069981;28;20214;-85
2022/10/02 11:30:22;;;;;;;1.05;0.93;;;;;;;20.51;100.00;96675.09;5069598;28;20309;-85
2022/10/02 11:33:24;;;;;;;1.08;0.90;;;;;;;20.94;100.00;96668.72;5065174;28;20201;-84
2022/10/02 11:36:07;;;;;;;1.05;1.00;;;;;;;21.09;100.00;96667.78;5041766;28;20213;-81
2022/10/02 11:39:07;;;;;;;1.05;0.93;;;;;;;20.80;100.00;96676.00;5070874;28;20259;-85
2022/10/02 11:42:13;;;;;;;1.75;0.98;;;;;;;20.96;100.00;96684.91;5067871;28;20210;-82
2022/10/02 11:45:08;;;;;;;1.38;1.05;;;;;;;21.37;100.00;96669.69;5071851;28;20227;-85
2022/10/02 11:47:57;;;;;;;0.75;0.75;;;;;;;21.79;100.00;96657.94;5065435;28;20197;-85
2022/10/02 11:50:48;;;;;;;1.30;0.82;;;;;;;22.12;97.84;96666.34;5064234;28;20233;-79
2022/10/02 11:53:28;;;;;;;0.80;0.73;;;;;;;22.33;97.00;96664.94;5060122;28;20217;-86
2022/10/02 11:56:11;;;;;;;2.25;0.90;;;;;;;22.39;92.89;96674.75;5073425;28;20205;-86
2022/10/02 11:58:48;;;;;;;1.00;0.90;;;;;;;22.39;96.13;96655.50;5073501;28;20201;-84
2022/10/02 12:01:25;;;;;;;0.70;0.70;;;;;;;22.34;94.84;96650.06;5075083;28;20243;-85
2022/10/02 12:04:11;;;;;;;3.25;1.00;;;;;;;22.16;93.95;96654.47;5075475;28;20205;-82
2022/10/02 12:07:16;;;;;;;1.10;0.90;;;;;;;21.82;95.03;96651.88;5067243;28;20251;-85
2022/10/02 12:09:54;;;;;;;1.00;0.80;;;;;;;21.63;97.11;96651.00;5067727;28;20213;-81
2022/10/02 12:12:36;;;;;;;1.77;0.80;;;;;;;21.68;95.90;96650.94;5072595;28;20299;-86
2022/10/02 12:15:14;;;;;;;1.10;0.90;;;;;;;21.70;95.93;96648.72;5075997;28;20245;-85
2022/10/02 12:17:54;;;;;;;1.15;1.00;;;;;;;21.62;97.33;96649.34;5071466;28;20205;-84
2022/10/02 12:26:59;;;;;;;2.08;0.82;;;;;;;21.58;95.02;96640.09;5063511;28;20211;-85
2022/10/02 12:29:39;;;;;;;1.48;1.17;;;;;;;21.37;99.03;96639.47;5070626;28;20209;-83
2022/10/02 12:32:16;;;;;;;1.75;1.40;;;;;;;21.00;100.00;96620.09;5073383;28;20210;-85
2022/10/02 12:34:58;;;;;;;1.58;1.40;;;;;;;20.77;100.00;96618.94;5062936;28;20223;-86
2022/10/02 12:37:32;;;;;;;1.75;0.90;;;;;;;20.82;100.00;96616.16;5076371;28;20208;-82
2022/10/02 12:40:13;;;;;;;2.60;1.20;;;;;;;20.81;100.00;96611.75;5064150;28;20243;-84
2022/10/02 12:43:04;;;;;;;2.05;1.40;;;;;;;20.49;100.00;96609.59;5070414;28;20234;-81